Time;durP1;ratioP1;P1;durP2;ratioP2;P2;SDS_P1;SDS_P2;PMS_P1;PMS_P2;Temp;Humidity;BMP_temperature;BMP_pressure;BME280_temperature;BME280_humidity;BME280_pressure;Samples;Min_cycle;Max_cycle;Signal;HPM_P1;HPM_P2
2023/09/17 00:03:47;;;;;;;7.18;6.35;;;;;;;15.34;100.00;152542.38;10504849;28;20217;-72
2023/09/17 00:08:50;;;;;;;6.88;6.38;;;;;;;15.06;100.00;152472.44;10502764;28;20048;-72
2023/09/17 00:13:52;;;;;;;7.38;6.88;;;;;;;15.18;100.00;152500.91;10503147;28;20044;-72
2023/09/17 00:18:55;;;;;;;18.15;6.18;;;;;;;15.29;100.00;152529.44;10503905;28;20036;-72
2023/09/17 00:23:56;;;;;;;6.32;5.93;;;;;;;15.42;100.00;152563.13;10501861;28;20041;-71
2023/09/17 00:28:59;;;;;;;6.35;5.93;;;;;;;15.35;100.00;152546.25;10501152;28;20549;-71
2023/09/17 00:34:01;;;;;;;6.00;5.60;;;;;;;15.01;100.00;152458.19;10503093;28;20044;-70
2023/09/17 00:39:04;;;;;;;5.90;5.30;;;;;;;15.18;100.00;152500.91;10501969;28;20082;-70
2023/09/17 00:44:05;;;;;;;6.57;6.07;;;;;;;15.07;100.00;152475.03;10484551;28;20047;-70
2023/09/17 00:49:13;;;;;;;6.10;5.70;;;;;;;14.82;100.00;152411.53;10500267;28;20049;-71
2023/09/17 00:54:15;;;;;;;6.15;5.75;;;;;;;14.81;100.00;152407.66;10499202;28;20060;-71
2023/09/17 00:59:18;;;;;;;6.15;5.65;;;;;;;14.61;100.00;152358.47;10499501;28;20075;-70
2023/09/17 01:04:21;;;;;;;6.78;6.28;;;;;;;14.60;100.00;152354.53;10500522;28;20131;-70
2023/09/17 01:09:22;;;;;;;6.40;5.88;;;;;;;14.90;100.00;152430.97;10500446;28;20076;-70
2023/09/17 01:14:24;;;;;;;6.45;5.95;;;;;;;14.82;100.00;152411.53;10498866;28;20124;-70
2023/09/17 01:19:29;;;;;;;5.93;5.40;;;;;;;14.56;100.00;152345.47;10499976;28;20048;-70
2023/09/17 01:24:45;;;;;;;5.95;5.55;;;;;;;14.61;100.00;152357.19;10501679;28;20575;-70
2023/09/17 01:29:47;;;;;;;6.40;5.93;;;;;;;14.79;100.00;152403.78;10499415;28;20381;-71
2023/09/17 01:34:52;;;;;;;5.60;5.20;;;;;;;14.46;100.00;152318.25;10498570;28;20066;-71
2023/09/17 01:40:05;;;;;;;6.28;5.70;;;;;;;14.44;100.00;152314.38;10500183;28;20044;-71
2023/09/17 01:45:09;;;;;;;5.80;5.40;;;;;;;14.52;100.00;152335.16;10499918;28;20075;-71
2023/09/17 01:50:15;;;;;;;6.90;6.40;;;;;;;14.51;100.00;152332.53;10499877;28;20056;-70
2023/09/17 01:55:18;;;;;;;5.97;5.50;;;;;;;14.48;100.00;152324.78;10499859;28;20500;-76
2023/09/17 02:00:20;;;;;;;6.43;5.88;;;;;;;14.70;100.00;152380.47;10499350;28;20048;-76
2023/09/17 02:05:24;;;;;;;5.70;5.30;;;;;;;14.36;100.00;152293.66;10500505;28;20106;-77
2023/09/17 02:10:26;;;;;;;5.45;5.05;;;;;;;14.12;100.00;152232.78;10486710;28;20048;-76
2023/09/17 02:15:28;;;;;;;5.97;5.47;;;;;;;14.28;100.00;152272.94;10500999;28;20090;-76
2023/09/17 02:20:30;;;;;;;5.75;5.35;;;;;;;14.34;100.00;152289.78;10499199;28;20045;-77
2023/09/17 02:25:32;;;;;;;6.13;5.63;;;;;;;14.17;100.00;152245.78;10500470;28;20072;-77
2023/09/17 02:30:34;;;;;;;5.65;5.25;;;;;;;14.39;100.00;152301.44;10504842;28;20043;-77
2023/09/17 02:35:37;;;;;;;6.28;5.88;;;;;;;14.06;100.00;152217.25;10507077;28;20049;-76
2023/09/17 02:40:39;;;;;;;6.43;5.88;;;;;;;14.24;100.00;152263.88;10508267;28;20062;-77
2023/09/17 02:45:41;;;;;;;5.80;5.40;;;;;;;14.00;100.00;152203.03;10508671;28;20048;-77
2023/09/17 02:50:43;;;;;;;5.75;5.35;;;;;;;14.03;100.00;152210.81;10510168;28;20045;-78
2023/09/17 02:55:45;;;;;;;6.03;5.63;;;;;;;14.14;100.00;152238.00;10511083;28;20049;-77
2023/09/17 03:00:47;;;;;;;5.75;5.22;;;;;;;14.01;100.00;152205.63;10510155;28;20076;-77
2023/09/17 03:05:49;;;;;;;5.25;4.95;;;;;;;14.08;100.00;152222.47;10507021;28;20131;-77
2023/09/17 03:10:59;;;;;;;5.50;5.00;;;;;;;13.82;100.00;152156.44;10508669;28;20389;-77
2023/09/17 03:16:02;;;;;;;5.97;5.30;;;;;;;13.83;100.00;152160.31;10509132;28;20068;-77
2023/09/17 03:21:07;;;;;;;6.25;5.85;;;;;;;13.97;100.00;152193.97;10507440;28;20120;-77
2023/09/17 03:26:09;;;;;;;5.93;5.53;;;;;;;13.88;100.00;152173.25;10506448;28;20415;-76
2023/09/17 03:31:12;;;;;;;5.65;5.20;;;;;;;13.77;100.00;152144.81;10507079;28;20041;-77
2023/09/17 03:36:14;;;;;;;6.28;5.88;;;;;;;13.88;100.00;152171.97;10510173;28;20507;-76
2023/09/17 03:41:15;;;;;;;5.53;5.07;;;;;;;14.13;100.00;152236.69;10488474;28;20045;-77
2023/09/17 03:46:18;;;;;;;5.88;5.38;;;;;;;14.00;100.00;152203.03;10505514;28;20086;-77
2023/09/17 03:51:21;;;;;;;6.32;5.82;;;;;;;13.75;100.00;152138.31;10505441;28;20139;-76
2023/09/17 03:56:24;;;;;;;5.88;5.43;;;;;;;13.71;100.00;152127.94;10506703;28;20109;-76
2023/09/17 04:01:29;;;;;;;5.35;4.95;;;;;;;13.55;100.00;152087.88;10491436;28;20049;-77
2023/09/17 04:06:31;;;;;;;6.57;5.97;;;;;;;13.76;100.00;152140.88;10506674;28;20472;-77
2023/09/17 04:11:33;;;;;;;5.93;5.38;;;;;;;13.71;100.00;152127.94;10505377;28;20067;-78
2023/09/17 04:16:35;;;;;;;6.03;5.63;;;;;;;13.56;100.00;152091.72;10505445;28;20111;-78
2023/09/17 04:21:37;;;;;;;6.05;5.65;;;;;;;13.46;100.00;152065.88;10506146;28;20052;-77
2023/09/17 04:26:40;;;;;;;6.53;6.03;;;;;;;13.76;100.00;152142.19;10486390;28;20459;-77
2023/09/17 04:31:41;;;;;;;6.35;5.88;;;;;;;13.71;100.00;152127.94;10503842;28;20040;-77
2023/09/17 04:36:43;;;;;;;6.20;5.80;;;;;;;13.46;100.00;152064.53;10507208;28;20391;-77
2023/09/17 04:41:45;;;;;;;6.80;6.25;;;;;;;13.43;100.00;152056.78;10505495;28;20067;-76
2023/09/17 04:46:47;;;;;;;6.10;5.70;;;;;;;13.63;100.00;152108.53;10503775;28;20546;-77
2023/09/17 04:51:50;;;;;;;6.32;5.93;;;;;;;13.31;100.00;152028.31;10501898;28;20569;-76
2023/09/17 04:56:52;;;;;;;6.07;5.57;;;;;;;13.22;100.00;152003.69;10502526;28;20044;-77
2023/09/17 05:01:54;;;;;;;5.90;5.50;;;;;;;13.19;100.00;151997.19;10501895;28;20044;-77
2023/09/17 05:06:57;;;;;;;8.27;6.72;;;;;;;13.62;100.00;152107.25;10502873;28;20044;-76
2023/09/17 05:11:59;;;;;;;6.03;5.60;;;;;;;13.36;100.00;152041.25;10500371;28;20048;-77
2023/09/17 05:17:02;;;;;;;6.47;5.97;;;;;;;13.22;100.00;152003.69;10500652;28;20131;-76
2023/09/17 05:22:04;;;;;;;6.63;6.13;;;;;;;13.25;100.00;152011.50;10500360;28;20045;-76
2023/09/17 05:27:06;;;;;;;6.82;6.22;;;;;;;13.19;100.00;151997.19;10487394;28;20051;-76
2023/09/17 05:32:09;;;;;;;6.85;6.35;;;;;;;13.47;100.00;152068.44;10500368;28;20040;-76
2023/09/17 05:37:11;;;;;;;6.95;6.45;;;;;;;13.85;100.00;152164.19;10499927;28;20044;-77
2023/09/17 05:42:13;;;;;;;6.40;5.90;;;;;;;13.74;100.00;152137.03;10500328;28;20048;-76
2023/09/17 05:47:15;;;;;;;6.80;6.22;;;;;;;13.70;100.00;152126.66;10503404;28;20514;-76
2023/09/17 05:52:18;;;;;;;6.65;6.15;;;;;;;13.91;100.00;152178.44;10499418;28;20063;-76
2023/09/17 05:57:20;;;;;;;6.95;6.45;;;;;;;14.24;100.00;152262.56;10499651;28;20071;-76
2023/09/17 06:02:22;;;;;;;7.15;6.55;;;;;;;14.53;100.00;152336.44;10499166;28;20055;-75
2023/09/17 06:07:24;;;;;;;7.30;6.70;;;;;;;15.16;100.00;152497.03;10499919;28;20412;-77
2023/09/17 06:12:26;;;;;;;6.50;6.00;;;;;;;15.61;100.00;152611.06;10502915;28;20040;-76
2023/09/17 06:17:28;;;;;;;6.32;5.82;;;;;;;15.82;100.00;152664.25;10493812;28;20037;-76
2023/09/17 06:22:30;;;;;;;5.00;4.60;;;;;;;16.02;100.00;152714.78;10472954;28;20055;-76
2023/09/17 06:27:34;;;;;;;4.40;4.10;;;;;;;16.08;100.00;152730.38;10488729;28;20052;-75
2023/09/17 06:32:37;;;;;;;4.75;4.35;;;;;;;16.39;98.99;152810.75;10461056;28;20069;-78
2023/09/17 06:37:39;;;;;;;5.15;4.75;;;;;;;16.68;95.15;152882.06;10488110;28;20102;-77
2023/09/17 06:42:41;;;;;;;4.20;3.83;;;;;;;16.89;95.31;152937.88;10501271;28;20064;-77
2023/09/17 06:47:43;;;;;;;4.15;3.78;;;;;;;17.20;93.37;153015.72;10472950;28;20053;-77
2023/09/17 06:52:45;;;;;;;3.53;3.22;;;;;;;17.48;90.57;153087.06;10460848;28;20044;-76
2023/09/17 06:57:47;;;;;;;3.53;3.10;;;;;;;17.80;89.55;153167.63;10459817;28;20045;-76
2023/09/17 07:02:48;;;;;;;2.85;2.65;;;;;;;17.94;89.35;153203.94;10443387;28;20079;-76
2023/09/17 07:07:51;;;;;;;3.67;3.05;;;;;;;18.23;87.05;153276.63;10457970;28;20049;-77
2023/09/17 07:12:53;;;;;;;3.60;3.25;;;;;;;18.33;86.90;153302.63;10457949;28;20060;-77
2023/09/17 07:17:55;;;;;;;3.92;3.30;;;;;;;18.27;85.34;153288.31;10466014;28;20048;-78
2023/09/17 07:22:56;;;;;;;3.60;3.30;;;;;;;18.69;82.56;153394.88;10472586;28;20045;-78
2023/09/17 07:28:04;;;;;;;3.47;3.17;;;;;;;18.48;84.42;153341.56;10480772;28;20037;-78
2023/09/17 07:33:06;;;;;;;3.20;2.95;;;;;;;18.89;81.31;153446.78;10481224;28;20048;-78
2023/09/17 07:38:08;;;;;;;3.83;3.53;;;;;;;19.15;79.61;153511.75;10479351;28;20459;-78
2023/09/17 07:43:10;;;;;;;2.97;2.78;;;;;;;19.35;79.35;153562.44;10450632;28;20128;-77
2023/09/17 07:48:12;;;;;;;4.65;3.33;;;;;;;19.78;76.62;153671.59;10471013;28;20048;-78
2023/09/17 07:53:14;;;;;;;4.22;3.83;;;;;;;19.72;76.84;153656.03;10469068;28;20144;-78
2023/09/17 07:58:15;;;;;;;2.92;2.72;;;;;;;20.09;74.06;153750.91;10470747;28;20049;-77
2023/09/17 08:03:18;;;;;;;3.60;2.78;;;;;;;20.25;73.87;153791.22;10468217;28;20045;-78
2023/09/17 08:08:20;;;;;;;3.28;2.97;;;;;;;20.09;75.63;153752.19;10467298;28;20048;-77
2023/09/17 08:13:22;;;;;;;4.10;3.70;;;;;;;20.41;74.73;153832.84;10469220;28;20101;-78
2023/09/17 08:18:25;;;;;;;4.13;3.83;;;;;;;20.62;71.72;153887.44;10471110;28;20056;-78
2023/09/17 08:23:26;;;;;;;2.72;2.53;;;;;;;21.13;68.54;154017.53;10474968;28;20064;-78
2023/09/17 08:28:28;;;;;;;4.13;3.15;;;;;;;21.04;68.69;153994.13;10476472;28;20484;-78
2023/09/17 08:33:30;;;;;;;2.65;2.45;;;;;;;21.11;69.34;154012.31;10477475;28;20102;-78
2023/09/17 08:38:32;;;;;;;2.67;2.47;;;;;;;21.55;65.70;154124.25;10478608;28;20196;-78
2023/09/17 08:43:34;;;;;;;3.28;2.60;;;;;;;21.52;66.50;154115.19;10497902;28;20424;-78
2023/09/17 08:48:36;;;;;;;2.40;2.20;;;;;;;21.82;65.65;154193.19;10509694;28;20044;-76
2023/09/17 08:53:44;;;;;;;2.47;2.28;;;;;;;21.99;64.49;154234.88;10502763;28;20040;-77
2023/09/17 08:59:00;;;;;;;2.83;2.58;;;;;;;21.83;65.75;154194.56;10504269;28;20079;-76
2023/09/17 09:04:05;;;;;;;2.55;2.25;;;;;;;22.26;64.11;154303.91;10509129;28;20037;-77
2023/09/17 09:09:08;;;;;;;3.70;2.30;;;;;;;22.53;63.62;154374.19;10502588;28;20094;-76
2023/09/17 09:14:10;;;;;;;1.98;1.85;;;;;;;22.81;61.53;154445.84;10501100;28;20064;-76
2023/09/17 09:19:12;;;;;;;2.22;2.00;;;;;;;23.07;58.28;154512.31;10501198;28;20075;-74
2023/09/17 09:24:16;;;;;;;3.55;2.42;;;;;;;23.70;56.70;154672.56;10501505;28;20044;-74
2023/09/17 09:29:19;;;;;;;3.45;2.03;;;;;;;24.25;55.20;154813.28;10502734;28;20120;-74
2023/09/17 09:34:25;;;;;;;5.30;2.08;;;;;;;24.86;53.47;154969.78;10498900;28;20467;-74
2023/09/17 09:39:26;;;;;;;1.88;1.67;;;;;;;25.40;51.72;155106.75;10499429;28;20098;-74
2023/09/17 09:44:30;;;;;;;2.47;1.98;;;;;;;26.07;49.57;155277.69;10499555;28;20540;-75
2023/09/17 09:49:40;;;;;;;78.03;4.38;;;;;;;26.90;47.15;155490.50;10501703;28;20086;-74
2023/09/17 09:54:44;;;;;;;18.80;3.08;;;;;;;27.04;47.01;155525.72;10499639;28;20036;-71
2023/09/17 09:59:47;;;;;;;2.35;1.70;;;;;;;26.99;47.11;155512.69;10499359;28;20041;-73
2023/09/17 10:04:49;;;;;;;2.53;1.60;;;;;;;27.77;47.41;155712.59;10498823;28;20082;-71
2023/09/17 10:09:51;;;;;;;2.15;2.00;;;;;;;28.12;44.17;155804.03;10482147;28;20041;-72
2023/09/17 10:14:53;;;;;;;1.60;1.50;;;;;;;28.32;43.67;155854.94;10499474;28;20064;-72
2023/09/17 10:19:55;;;;;;;1.60;1.48;;;;;;;28.14;43.31;155809.22;10497632;28;20084;-73
2023/09/17 10:24:57;;;;;;;1.75;1.65;;;;;;;28.13;44.86;155806.63;10497962;28;20043;-67
2023/09/17 10:29:59;;;;;;;2.20;1.60;;;;;;;28.13;44.67;155806.63;10498280;28;20047;-68
2023/09/17 10:35:03;;;;;;;2.63;1.63;;;;;;;28.32;45.18;155853.66;10498093;28;20041;-68
2023/09/17 10:40:09;;;;;;;2.30;1.58;;;;;;;29.03;43.06;156035.38;10498456;28;20048;-67
2023/09/17 10:45:12;;;;;;;2.25;1.40;;;;;;;29.57;40.54;156174.00;10499619;28;20036;-67
2023/09/17 10:50:15;;;;;;;1.90;1.67;;;;;;;29.49;42.02;156154.38;10498266;28;20048;-69
2023/09/17 10:55:17;;;;;;;1.75;1.65;;;;;;;30.02;40.19;156289.09;10506500;28;20112;-67
2023/09/17 11:00:23;;;;;;;2.30;1.60;;;;;;;29.64;39.96;156193.63;10505959;28;20048;-67
2023/09/17 11:05:28;;;;;;;2.75;1.63;;;;;;;29.72;40.14;156211.94;10505080;28;20044;-68
2023/09/17 11:10:30;;;;;;;2.13;1.50;;;;;;;30.35;39.35;156374.13;10507356;28;20032;-68
2023/09/17 11:15:33;;;;;;;1.58;1.48;;;;;;;30.81;37.54;156491.91;10506305;28;20119;-68
2023/09/17 11:20:56;;;;;;;1.52;1.40;;;;;;;30.34;37.58;156371.53;10505071;28;20091;-68
2023/09/17 11:25:58;;;;;;;3.08;1.70;;;;;;;29.89;39.80;156256.41;10503701;28;20040;-68
2023/09/17 11:31:09;;;;;;;2.50;1.70;;;;;;;29.92;38.80;156265.53;10504292;28;20041;-67
2023/09/17 11:36:11;;;;;;;1.50;1.40;;;;;;;29.78;41.37;156227.63;10504662;28;20040;-67
2023/09/17 11:41:16;;;;;;;2.65;1.50;;;;;;;29.43;39.92;156138.66;10505855;28;20036;-68
2023/09/17 11:46:18;;;;;;;2.05;1.60;;;;;;;29.22;42.53;156083.75;10504644;28;20037;-69
2023/09/17 11:51:30;;;;;;;1.40;1.30;;;;;;;29.56;42.26;156171.38;10504078;28;20048;-68
2023/09/17 11:56:49;;;;;;;2.97;1.60;;;;;;;29.99;40.26;156281.25;10478877;28;20516;-68
2023/09/17 12:01:53;;;;;;;1.60;1.50;;;;;;;30.71;38.44;156467.00;10438368;28;20040;-67
2023/09/17 12:06:56;;;;;;;4.00;1.60;;;;;;;30.57;38.07;156430.41;10502146;28;20045;-67
2023/09/17 12:11:59;;;;;;;8.00;1.52;;;;;;;30.62;39.37;156444.78;10481770;28;20036;-68
2023/09/17 12:17:01;;;;;;;1.80;1.70;;;;;;;30.13;37.95;156317.84;10462000;28;20052;-68
2023/09/17 12:22:08;;;;;;;1.77;1.67;;;;;;;29.98;39.48;156278.63;10462757;28;20041;-68
2023/09/17 12:27:19;;;;;;;1.40;1.30;;;;;;;29.88;39.70;156253.75;10460592;28;20069;-68
2023/09/17 12:32:27;;;;;;;1.70;1.60;;;;;;;29.60;39.21;156183.16;10461039;28;20120;-68
2023/09/17 12:37:29;;;;;;;1.88;1.55;;;;;;;29.19;40.35;156075.94;10443420;28;20064;-68
2023/09/17 12:42:33;;;;;;;1.65;1.55;;;;;;;29.09;41.36;156052.41;10459312;28;20103;-69
2023/09/17 12:47:35;;;;;;;1.95;1.50;;;;;;;28.60;41.50;155926.91;10460983;28;20488;-68
2023/09/17 12:52:36;;;;;;;1.95;1.80;;;;;;;28.45;42.31;155887.66;10460554;28;20037;-68
2023/09/17 12:57:39;;;;;;;1.70;1.60;;;;;;;28.68;42.82;155946.47;10461018;28;20095;-67
2023/09/17 13:02:41;;;;;;;1.75;1.65;;;;;;;28.50;41.36;155900.72;10458364;28;20416;-67
2023/09/17 13:07:43;;;;;;;2.80;1.52;;;;;;;28.31;42.06;155852.34;10460687;28;20043;-68
2023/09/17 13:12:45;;;;;;;2.25;2.00;;;;;;;28.37;41.75;155868.06;10458141;28;20550;-67
2023/09/17 13:17:47;;;;;;;1.63;1.40;;;;;;;28.32;41.44;155854.94;10458853;28;20072;-67
2023/09/17 13:22:50;;;;;;;1.70;1.60;;;;;;;28.38;41.07;155869.41;10459311;28;20037;-68
2023/09/17 13:27:52;;;;;;;1.90;1.67;;;;;;;28.20;42.12;155823.63;10460171;28;20107;-68
2023/09/17 13:32:56;;;;;;;2.05;1.60;;;;;;;28.19;42.40;155819.69;10458631;28;20119;-68
2023/09/17 13:37:58;;;;;;;1.52;1.42;;;;;;;28.17;42.59;155817.06;10458175;28;20120;-68
2023/09/17 13:43:00;;;;;;;1.60;1.50;;;;;;;28.05;42.15;155785.72;10458109;28;20103;-67
2023/09/17 13:48:02;;;;;;;1.70;1.60;;;;;;;27.94;43.02;155755.69;10457689;28;20045;-67
2023/09/17 13:53:04;;;;;;;1.63;1.52;;;;;;;28.09;42.05;155794.88;10459166;28;20120;-68
2023/09/17 13:58:06;;;;;;;1.92;1.58;;;;;;;27.82;42.27;155725.63;10457846;28;20041;-69
2023/09/17 14:03:13;;;;;;;1.83;1.73;;;;;;;27.82;43.24;155726.94;10458292;28;20103;-67
2023/09/17 14:08:15;;;;;;;1.90;1.80;;;;;;;27.91;42.46;155750.44;10458407;28;20040;-67
2023/09/17 14:13:17;;;;;;;2.38;1.65;;;;;;;27.85;42.83;155733.50;10459447;28;20041;-68
2023/09/17 14:18:18;;;;;;;1.63;1.52;;;;;;;27.99;42.33;155768.75;10457141;28;20051;-68
2023/09/17 14:23:20;;;;;;;7.13;1.70;;;;;;;27.94;41.25;155757.00;10457000;28;20052;-69
2023/09/17 14:28:22;;;;;;;1.63;1.52;;;;;;;27.65;42.43;155683.78;10443437;28;20045;-68
2023/09/17 14:33:24;;;;;;;1.80;1.60;;;;;;;27.51;43.30;155645.94;10466674;28;20047;-68
2023/09/17 14:38:26;;;;;;;1.70;1.60;;;;;;;27.59;43.25;155666.84;10465393;28;20049;-68
2023/09/17 14:43:29;;;;;;;2.70;1.48;;;;;;;27.95;42.09;155758.31;10464629;28;20091;-68
2023/09/17 14:48:30;;;;;;;2.15;1.92;;;;;;;27.84;42.29;155730.84;10464080;28;20044;-67
2023/09/17 14:53:32;;;;;;;1.58;1.48;;;;;;;27.63;42.40;155678.59;10464562;28;20068;-67
2023/09/17 14:58:34;;;;;;;1.77;1.45;;;;;;;27.62;42.71;155674.63;10466663;28;20120;-68
2023/09/17 15:03:36;;;;;;;6.30;1.63;;;;;;;27.75;43.74;155707.34;10464097;28;20052;-67
2023/09/17 15:08:38;;;;;;;2.25;2.05;;;;;;;27.67;43.37;155689.03;10463703;28;20049;-68
2023/09/17 15:13:39;;;;;;;2.10;2.00;;;;;;;27.44;44.64;155628.94;10463701;28;20041;-67
2023/09/17 15:18:41;;;;;;;1.90;1.80;;;;;;;27.38;44.70;155613.28;10464949;28;20404;-69
2023/09/17 15:23:43;;;;;;;2.08;1.98;;;;;;;27.26;44.66;155581.94;10462151;28;20037;-68
2023/09/17 15:28:47;;;;;;;2.33;1.70;;;;;;;27.45;44.48;155630.22;10462867;28;20123;-68
2023/09/17 15:33:49;;;;;;;2.13;1.92;;;;;;;27.44;44.05;155627.63;10461016;28;20051;-68
2023/09/17 15:38:51;;;;;;;2.55;2.35;;;;;;;27.45;44.62;155630.22;10462880;28;20045;-67
2023/09/17 15:43:53;;;;;;;2.63;1.90;;;;;;;27.34;44.85;155604.13;10463983;28;20465;-68
2023/09/17 15:48:55;;;;;;;2.47;1.85;;;;;;;27.11;45.15;155545.38;10462314;28;20044;-67
2023/09/17 15:53:56;;;;;;;2.33;2.13;;;;;;;26.90;45.78;155490.50;10461460;28;20120;-67
2023/09/17 15:58:58;;;;;;;2.88;2.30;;;;;;;27.10;45.39;155542.78;10460591;28;20055;-67
2023/09/17 16:04:00;;;;;;;2.35;2.15;;;;;;;26.99;46.28;155512.69;10462358;28;20390;-67
2023/09/17 16:09:02;;;;;;;5.50;2.30;;;;;;;26.99;45.98;155512.69;10461066;28;20051;-67
2023/09/17 16:14:04;;;;;;;4.50;2.13;;;;;;;26.95;46.18;155503.53;10461911;28;20107;-67
2023/09/17 16:19:06;;;;;;;2.80;2.60;;;;;;;26.86;46.22;155480.03;10462357;28;20056;-67
2023/09/17 16:24:09;;;;;;;2.45;2.25;;;;;;;26.66;47.02;155430.47;10462412;28;20064;-67
2023/09/17 16:29:11;;;;;;;2.63;2.35;;;;;;;26.62;47.34;155418.72;10461388;28;20040;-69
2023/09/17 16:34:13;;;;;;;3.78;2.88;;;;;;;26.52;47.75;155393.91;10459738;28;20128;-68
2023/09/17 16:39:15;;;;;;;2.22;2.13;;;;;;;26.35;48.07;155350.78;10461252;28;20124;-68
2023/09/17 16:44:17;;;;;;;3.53;2.67;;;;;;;26.19;48.64;155309.03;10460773;28;20041;-68
2023/09/17 16:49:19;;;;;;;2.78;2.40;;;;;;;25.99;50.25;155258.16;10460622;28;20143;-69
2023/09/17 16:54:21;;;;;;;3.67;2.40;;;;;;;26.02;49.49;155264.66;10460779;28;20033;-68
2023/09/17 16:59:23;;;;;;;2.75;2.55;;;;;;;25.85;50.34;155222.94;10460674;28;20048;-69
2023/09/17 17:04:26;;;;;;;4.30;2.17;;;;;;;25.73;51.22;155190.28;10459808;28;20040;-66
2023/09/17 17:09:28;;;;;;;2.30;2.10;;;;;;;25.30;52.33;155080.69;10459590;28;20060;-68
2023/09/17 17:14:30;;;;;;;3.30;2.47;;;;;;;25.11;53.32;155032.44;10460181;28;20564;-67
2023/09/17 17:19:32;;;;;;;2.50;2.22;;;;;;;24.91;53.89;154982.81;10459735;28;20045;-68
2023/09/17 17:24:33;;;;;;;2.70;2.42;;;;;;;24.65;54.67;154915.03;10459787;28;20041;-67
2023/09/17 17:29:38;;;;;;;2.38;2.13;;;;;;;24.57;54.99;154895.50;10459338;28;20120;-68
2023/09/17 17:34:40;;;;;;;3.38;2.30;;;;;;;24.62;55.10;154908.53;10457449;28;20041;-68
2023/09/17 17:39:42;;;;;;;2.63;2.40;;;;;;;24.58;55.17;154896.78;10458069;28;20418;-67
2023/09/17 17:44:44;;;;;;;3.33;2.40;;;;;;;24.36;55.67;154842.00;10473054;28;20059;-67
2023/09/17 17:49:49;;;;;;;3.17;2.20;;;;;;;24.24;56.26;154809.41;10475318;28;20059;-68
2023/09/17 17:54:52;;;;;;;6.90;2.37;;;;;;;23.92;57.19;154729.91;10502110;28;20037;-67
2023/09/17 17:59:54;;;;;;;2.45;2.20;;;;;;;23.68;58.19;154667.34;10469213;28;20102;-66
2023/09/17 18:04:56;;;;;;;2.45;2.25;;;;;;;23.52;59.56;154626.94;10458040;28;20493;-67
2023/09/17 18:09:58;;;;;;;2.80;2.30;;;;;;;23.21;60.82;154546.16;10458550;28;20451;-67
2023/09/17 18:15:04;;;;;;;3.10;2.75;;;;;;;22.93;62.11;154475.81;10460587;28;20059;-68
2023/09/17 18:20:06;;;;;;;;;;;;;;;22.78;62.62;154438.00;10459084;28;20041;-68
2023/09/17 18:25:08;;;;;;;4.53;2.50;;;;;;;22.65;62.99;154405.44;10458019;28;19928;-68
2023/09/17 18:30:10;;;;;;;2.42;2.22;;;;;;;22.51;64.10;154369.00;10495105;28;20086;-68
2023/09/17 18:35:12;;;;;;;4.88;3.17;;;;;;;22.83;64.08;154449.72;10499637;28;20112;-69
2023/09/17 18:40:14;;;;;;;3.55;3.15;;;;;;;22.62;64.80;154396.31;10501334;28;20492;-67
2023/09/17 18:45:16;;;;;;;2.88;2.67;;;;;;;22.55;63.55;154379.41;10482204;28;20508;-67
2023/09/17 18:50:18;;;;;;;2.40;2.20;;;;;;;22.77;61.50;154434.13;10496852;28;20500;-70
2023/09/17 18:55:24;;;;;;;3.00;2.55;;;;;;;22.54;62.38;154376.81;10502400;28;20044;-69
2023/09/17 19:00:33;;;;;;;2.63;2.42;;;;;;;22.15;64.10;154277.88;10501506;28;20037;-68
2023/09/17 19:05:35;;;;;;;3.15;2.90;;;;;;;21.95;64.89;154225.75;10498422;28;20074;-67
2023/09/17 19:10:38;;;;;;;3.28;3.03;;;;;;;21.76;65.83;154176.31;10498887;28;20493;-67
2023/09/17 19:15:43;;;;;;;3.63;3.33;;;;;;;21.68;67.02;154156.78;10503748;28;20120;-68
2023/09/17 19:20:46;;;;;;;2.72;2.53;;;;;;;21.91;64.74;154216.69;10508491;28;20064;-68
2023/09/17 19:25:49;;;;;;;2.97;2.33;;;;;;;21.97;63.31;154229.69;10505727;28;20040;-68
2023/09/17 19:30:51;;;;;;;3.20;2.20;;;;;;;21.71;64.56;154163.31;10505403;28;20123;-68
2023/09/17 19:35:53;;;;;;;2.72;2.42;;;;;;;21.41;66.15;154089.13;10505422;28;20037;-67
2023/09/17 19:40:55;;;;;;;2.60;2.40;;;;;;;21.40;66.15;154086.53;10505327;28;20090;-68
2023/09/17 19:45:57;;;;;;;2.50;2.35;;;;;;;21.21;66.19;154035.75;10507725;28;20488;-68
2023/09/17 19:51:00;;;;;;;2.60;2.40;;;;;;;21.05;66.58;153996.72;10505939;28;20048;-68
2023/09/17 19:56:02;;;;;;;2.50;2.20;;;;;;;21.13;66.63;154017.53;10505491;28;20539;-68
2023/09/17 20:01:06;;;;;;;2.22;2.05;;;;;;;20.96;67.18;153973.31;10504904;28;20043;-68
2023/09/17 20:06:08;;;;;;;3.72;2.70;;;;;;;20.94;66.63;153966.78;10506637;28;20043;-68
2023/09/17 20:11:10;;;;;;;2.80;2.50;;;;;;;20.68;67.39;153900.50;10503828;28;20503;-68
2023/09/17 20:16:14;;;;;;;3.45;2.53;;;;;;;20.73;66.84;153914.78;10504080;28;20047;-67
2023/09/17 20:21:15;;;;;;;2.40;2.20;;;;;;;20.86;65.55;153947.31;10504250;28;20049;-68
2023/09/17 20:26:17;;;;;;;3.08;2.25;;;;;;;20.80;65.76;153931.69;10504773;28;20040;-67
2023/09/17 20:31:20;;;;;;;3.30;2.30;;;;;;;20.79;65.75;153930.38;10505563;28;20045;-70
2023/09/17 20:36:22;;;;;;;2.58;2.38;;;;;;;20.61;66.17;153883.56;10504872;28;20518;-69
2023/09/17 20:41:25;;;;;;;2.95;2.70;;;;;;;20.41;66.72;153834.13;10504169;28;20062;-70
2023/09/17 20:46:27;;;;;;;2.58;2.38;;;;;;;20.46;66.94;153845.81;10502686;28;20411;-72
2023/09/17 20:51:30;;;;;;;2.85;2.65;;;;;;;20.17;67.71;153773.00;10507566;28;20052;-69
2023/09/17 20:56:32;;;;;;;2.40;2.20;;;;;;;19.93;68.65;153710.63;10485951;28;20037;-70
2023/09/17 21:01:34;;;;;;;3.75;3.10;;;;;;;20.02;70.36;153734.03;10502840;28;20044;-70
2023/09/17 21:06:36;;;;;;;3.13;2.75;;;;;;;20.14;71.02;153763.88;10501868;28;20094;-70
2023/09/17 21:11:37;;;;;;;3.28;2.85;;;;;;;19.87;72.30;153695.00;10504360;28;20495;-69
2023/09/17 21:16:39;;;;;;;3.03;2.83;;;;;;;19.73;72.46;153658.63;10500653;28;20037;-69
2023/09/17 21:21:43;;;;;;;2.70;2.50;;;;;;;19.52;73.65;153606.63;10501255;28;20071;-69
2023/09/17 21:26:45;;;;;;;3.22;2.50;;;;;;;19.19;74.65;153520.84;10500744;28;20040;-70
2023/09/17 21:31:47;;;;;;;3.33;3.03;;;;;;;19.29;74.78;153546.81;10501588;28;20479;-69
2023/09/17 21:36:51;;;;;;;3.50;3.30;;;;;;;19.09;75.49;153497.47;10501209;28;20507;-69
2023/09/17 21:41:53;;;;;;;3.25;2.95;;;;;;;19.03;76.66;153480.56;10499927;28;20044;-69
2023/09/17 21:46:55;;;;;;;3.72;3.42;;;;;;;18.91;76.91;153450.72;10499654;28;20041;-69
2023/09/17 21:51:57;;;;;;;3.17;2.92;;;;;;;18.57;78.86;153363.63;10500030;28;20460;-69
2023/09/17 21:57:07;;;;;;;4.10;3.80;;;;;;;18.47;79.33;153337.69;10503168;28;20040;-69
2023/09/17 22:02:09;;;;;;;3.22;2.92;;;;;;;18.31;80.02;153298.69;10498428;28;20507;-69
2023/09/17 22:07:11;;;;;;;3.03;2.83;;;;;;;18.28;80.27;153290.94;10499809;28;20086;-70
2023/09/17 22:12:14;;;;;;;2.45;2.25;;;;;;;18.39;79.53;153319.47;10499889;28;20048;-70
2023/09/17 22:17:16;;;;;;;2.65;2.40;;;;;;;18.43;79.53;153328.56;10502378;28;20044;-69
2023/09/17 22:22:18;;;;;;;2.50;2.30;;;;;;;18.37;79.22;153312.97;10500878;28;20072;-69
2023/09/17 22:27:20;;;;;;;2.67;2.47;;;;;;;18.40;79.18;153320.78;10500323;28;20132;-70
2023/09/17 22:32:21;;;;;;;2.83;2.63;;;;;;;18.31;79.83;153298.69;10499562;28;20132;-69
2023/09/17 22:37:23;;;;;;;2.80;2.50;;;;;;;18.18;80.55;153263.66;10500360;28;20384;-69
2023/09/17 22:42:25;;;;;;;3.53;2.42;;;;;;;18.20;80.58;153268.88;10503149;28;20429;-69
2023/09/17 22:47:27;;;;;;;3.08;2.63;;;;;;;18.36;80.32;153310.38;10501909;28;20086;-69
2023/09/17 22:52:29;;;;;;;4.30;2.67;;;;;;;18.18;81.00;153263.66;10508894;28;20381;-69
2023/09/17 22:57:30;;;;;;;2.95;2.75;;;;;;;18.04;81.83;153229.91;10508405;28;20045;-70
2023/09/17 23:02:32;;;;;;;2.90;2.65;;;;;;;18.16;81.59;153259.78;10509815;28;20098;-69
2023/09/17 23:07:34;;;;;;;2.97;2.78;;;;;;;18.18;81.95;153263.66;10508111;28;20040;-69